Time;durP1;ratioP1;P1;durP2;ratioP2;P2;SDS_P1;SDS_P2;PMS_P1;PMS_P2;Temp;Humidity;BMP_temperature;BMP_pressure;BME280_temperature;BME280_humidity;BME280_pressure;Samples;Min_cycle;Max_cycle;Signal;HPM_P1;HPM_P2
2022/11/06 00:01:11;;;;;;;1.50;1.40;;;;;;;11.81;57.58;101364.31;5051632;27;96913;-82
2022/11/06 00:03:37;;;;;;;1.30;1.20;;;;;;;11.81;57.55;101353.28;5049015;27;97167;-81
2022/11/06 00:08:51;;;;;;;3.57;1.60;;;;;;;11.80;57.61;101354.50;5053157;27;100432;-81
2022/11/06 00:11:17;;;;;;;2.00;1.03;;;;;;;11.79;57.47;101361.28;5048464;27;97314;-81
2022/11/06 00:13:43;;;;;;;4.17;1.20;;;;;;;11.82;57.50;101356.78;5037574;27;97092;-81
2022/11/06 00:16:11;;;;;;;1.80;1.27;;;;;;;11.83;57.50;101350.78;5058010;27;97381;-81
2022/11/06 00:18:38;;;;;;;1.10;1.03;;;;;;;11.82;57.49;101354.78;5059307;27;97950;-83
2022/11/06 00:21:08;;;;;;;1.53;1.43;;;;;;;11.82;57.59;101354.00;5056098;27;97110;-81
2022/11/06 00:23:34;;;;;;;1.40;1.30;;;;;;;11.82;57.69;101354.00;5044437;27;97285;-81
2022/11/06 00:25:59;;;;;;;1.63;1.30;;;;;;;11.80;57.60;101349.00;5036312;27;97252;-82
2022/11/06 00:28:25;;;;;;;2.20;1.20;;;;;;;11.81;57.58;101360.78;5043575;27;96959;-81
2022/11/06 00:30:50;;;;;;;1.63;1.23;;;;;;;11.80;57.54;101349.00;5043109;27;96841;-82
2022/11/06 00:33:16;;;;;;;1.00;1.00;;;;;;;11.79;57.59;101366.78;5043767;27;97380;-81
2022/11/06 00:35:41;;;;;;;1.60;1.00;;;;;;;11.77;57.58;101347.19;5049410;27;96986;-81
2022/11/06 00:38:06;;;;;;;4.10;1.60;;;;;;;11.76;57.56;101347.69;5045130;27;99927;-81
2022/11/06 00:40:32;;;;;;;2.87;1.27;;;;;;;11.76;57.72;101362.22;5034463;27;98152;-81
2022/11/06 00:42:58;;;;;;;1.57;1.43;;;;;;;11.78;57.55;101375.53;5060353;27;96914;-82
2022/11/06 00:45:24;;;;;;;3.13;1.47;;;;;;;11.76;57.61;101353.97;5047231;27;98725;-81
2022/11/06 00:47:50;;;;;;;1.97;1.40;;;;;;;11.75;57.71;101355.19;5048608;27;98082;-80
2022/11/06 00:50:16;;;;;;;1.43;1.33;;;;;;;11.76;57.65;101356.72;5047374;27;100673;-81
2022/11/06 00:52:42;;;;;;;1.63;1.10;;;;;;;11.73;57.78;101363.19;5044543;27;97712;-81
2022/11/06 00:55:08;;;;;;;3.67;1.43;;;;;;;11.74;57.60;101352.94;5065477;27;96835;-82
2022/11/06 00:57:33;;;;;;;1.40;1.00;;;;;;;11.76;57.72;101350.44;5046032;27;97670;-81
2022/11/06 00:59:59;;;;;;;2.17;1.27;;;;;;;11.76;57.72;101356.72;5052435;27;97623;-81
2022/11/06 01:02:24;;;;;;;2.27;1.23;;;;;;;11.78;57.71;101354.22;5043486;27;97096;-81
2022/11/06 01:04:50;;;;;;;1.63;1.00;;;;;;;11.78;57.85;101362.50;5034200;27;97079;-81
2022/11/06 01:07:15;;;;;;;3.03;1.20;;;;;;;11.80;57.93;101362.00;5027350;27;99636;-81
2022/11/06 01:09:40;;;;;;;2.50;1.30;;;;;;;11.80;57.75;101351.75;5041174;27;97404;-81
2022/11/06 01:12:06;;;;;;;1.03;1.03;;;;;;;11.80;57.90;101359.25;5042460;27;102386;-81
2022/11/06 01:14:31;;;;;;;1.70;1.60;;;;;;;11.77;57.80;101354.72;5052228;27;96732;-81
2022/11/06 01:16:57;;;;;;;4.10;1.30;;;;;;;11.77;57.82;101336.16;5044726;27;98273;-81
2022/11/06 01:19:22;;;;;;;6.37;1.83;;;;;;;11.78;57.67;101345.97;5034607;27;97751;-80
2022/11/06 01:21:54;;;;;;;1.20;1.10;;;;;;;11.76;58.01;101345.69;5050040;27;97430;-80
2022/11/06 01:24:25;;;;;;;1.27;1.17;;;;;;;11.75;57.98;101337.91;5037594;27;97053;-81
2022/11/06 01:26:51;;;;;;;1.23;1.13;;;;;;;11.72;58.06;101344.38;5040947;27;96923;-81
2022/11/06 01:29:19;;;;;;;1.17;1.10;;;;;;;11.67;57.87;101334.81;5043498;27;100341;-81
2022/11/06 01:31:45;;;;;;;2.30;1.00;;;;;;;11.67;58.00;101329.28;5057012;27;97421;-81
2022/11/06 01:34:12;;;;;;;2.27;1.30;;;;;;;11.62;58.11;101327.19;5042118;27;96914;-80
2022/11/06 01:36:38;;;;;;;5.83;1.73;;;;;;;11.62;58.10;101340.97;5041794;27;102419;-81
2022/11/06 01:39:06;;;;;;;1.93;1.80;;;;;;;11.64;58.01;101332.97;5049346;27;97637;-81
2022/11/06 01:41:35;;;;;;;2.03;1.60;;;;;;;11.65;58.13;101329.00;5038823;27;97086;-81
2022/11/06 01:44:25;;;;;;;1.60;1.17;;;;;;;11.65;58.14;101337.25;5020575;27;97498;-81
2022/11/06 01:46:51;;;;;;;3.27;1.10;;;;;;;11.63;58.15;101330.72;5041246;27;102690;-81
2022/11/06 01:49:17;;;;;;;2.03;1.53;;;;;;;11.63;58.11;101320.44;5063857;27;97337;-81
2022/11/06 01:51:53;;;;;;;2.30;1.27;;;;;;;11.67;58.13;101337.56;5033298;27;96734;-81
2022/11/06 01:54:21;;;;;;;1.73;0.83;;;;;;;11.65;58.03;101334.50;5058699;27;97219;-81
2022/11/06 01:56:50;;;;;;;1.83;1.30;;;;;;;11.64;58.24;101313.69;5031649;27;97737;-81
2022/11/06 01:59:18;;;;;;;1.20;1.10;;;;;;;11.65;58.25;101314.44;5039772;27;98110;-81
2022/11/06 02:01:44;;;;;;;1.67;1.57;;;;;;;11.67;58.18;101340.31;5038265;27;97376;-81
2022/11/06 02:04:13;;;;;;;1.97;1.23;;;;;;;11.67;58.08;101317.50;5042265;27;97293;-82
2022/11/06 02:06:39;;;;;;;1.23;1.00;;;;;;;11.67;58.19;101320.25;5040708;27;102023;-81
2022/11/06 02:09:10;;;;;;;1.77;1.03;;;;;;;11.64;58.20;101304.69;5043211;27;97357;-80
2022/11/06 02:11:43;;;;;;;1.70;1.50;;;;;;;11.59;58.24;101308.13;5031471;27;96855;-81
2022/11/06 02:14:24;;;;;;;2.90;1.60;;;;;;;11.56;58.29;101304.31;5030512;27;97304;-81
2022/11/06 02:17:14;;;;;;;1.43;1.33;;;;;;;11.59;58.43;101303.38;5041716;27;103590;-82
2022/11/06 02:20:01;;;;;;;3.60;1.20;;;;;;;11.56;58.29;101296.06;5039109;27;97024;-81
2022/11/06 02:22:50;;;;;;;1.53;0.90;;;;;;;11.57;58.35;101302.34;5063204;27;97589;-82
2022/11/06 02:25:35;;;;;;;3.80;1.23;;;;;;;11.59;58.50;101305.34;5044339;27;97272;-82
2022/11/06 02:28:07;;;;;;;2.63;0.80;;;;;;;11.59;58.48;101295.09;5057681;27;102210;-82
2022/11/06 02:30:40;;;;;;;1.23;1.13;;;;;;;11.61;58.30;101300.13;5046795;27;97100;-81
2022/11/06 02:33:11;;;;;;;1.10;1.00;;;;;;;11.63;58.43;101303.91;5048608;27;97201;-82
2022/11/06 02:35:46;;;;;;;1.50;1.40;;;;;;;11.67;58.36;101287.94;5042144;27;97579;-82
2022/11/06 02:38:20;;;;;;;2.23;1.03;;;;;;;11.70;58.35;101288.97;5058903;27;99509;-81
2022/11/06 02:40:51;;;;;;;1.63;1.37;;;;;;;11.72;58.31;101279.00;5028783;27;97532;-81
2022/11/06 02:43:18;;;;;;;2.63;1.57;;;;;;;11.73;58.38;101279.75;5042608;27;97145;-81
2022/11/06 02:45:53;;;;;;;2.30;1.13;;;;;;;11.76;58.36;101279.53;5031819;27;97034;-81
2022/11/06 02:48:27;;;;;;;2.90;1.30;;;;;;;11.78;58.36;101290.06;5044242;27;101631;-82
2022/11/06 02:50:55;;;;;;;1.67;1.30;;;;;;;11.76;58.24;101273.25;5043667;27;98507;-81
2022/11/06 02:53:24;;;;;;;1.67;1.57;;;;;;;11.76;58.19;101276.78;5038876;27;97188;-81
2022/11/06 02:55:54;;;;;;;1.97;1.50;;;;;;;11.77;58.27;101274.78;5039914;27;97348;-81
2022/11/06 02:58:40;;;;;;;2.60;1.23;;;;;;;11.78;58.36;101277.03;5051550;27;102120;-82
2022/11/06 03:01:19;;;;;;;2.17;1.40;;;;;;;11.76;58.26;101268.50;5034365;27;100554;-81
2022/11/06 03:03:52;;;;;;;0.90;0.70;;;;;;;11.78;58.27;101273.53;5030416;27;96938;-81
2022/11/06 03:06:26;;;;;;;1.20;1.03;;;;;;;11.78;58.39;101277.03;5034005;27;97314;-81
2022/11/06 03:09:02;;;;;;;1.50;1.40;;;;;;;11.78;58.25;101265.25;5035182;27;99618;-81
2022/11/06 03:11:31;;;;;;;1.30;1.00;;;;;;;11.78;58.28;101271.53;5038403;27;97181;-81
2022/11/06 03:14:21;;;;;;;3.17;1.37;;;;;;;11.75;58.28;101255.22;5042839;27;97519;-81
2022/11/06 03:17:02;;;;;;;3.13;1.60;;;;;;;11.73;58.28;101252.19;5043332;27;96783;-82
2022/11/06 03:19:46;;;;;;;1.93;1.30;;;;;;;11.70;58.34;101253.91;5044246;27;99693;-80
2022/11/06 03:22:31;;;;;;;5.70;1.30;;;;;;;11.68;58.21;101245.38;5044013;27;103298;-81
2022/11/06 03:25:04;;;;;;;2.83;1.50;;;;;;;11.67;58.14;101248.59;5042720;27;97922;-81
2022/11/06 03:27:37;;;;;;;4.70;1.53;;;;;;;11.67;58.48;101241.09;5042604;27;97179;-81
2022/11/06 03:30:13;;;;;;;1.40;1.30;;;;;;;11.70;58.27;101245.66;5063695;27;97884;-81
2022/11/06 03:33:03;;;;;;;1.80;1.47;;;;;;;11.72;58.18;101243.16;5045978;27;98805;-81
2022/11/06 03:35:40;;;;;;;1.40;1.30;;;;;;;11.72;58.27;101245.91;5049499;27;96764;-82
2022/11/06 03:38:18;;;;;;;3.20;1.20;;;;;;;11.71;58.16;101244.38;5048483;27;96705;-81
2022/11/06 03:40:49;;;;;;;1.60;1.43;;;;;;;11.71;58.38;101247.16;5040159;27;97197;-82
2022/11/06 03:43:19;;;;;;;1.33;1.23;;;;;;;11.70;58.33;101236.59;5067317;27;96946;-81
2022/11/06 03:45:48;;;;;;;1.37;1.23;;;;;;;11.69;58.34;101240.59;5058913;27;96952;-81
2022/11/06 03:48:27;;;;;;;2.50;1.33;;;;;;;11.65;58.30;101238.03;5063839;27;97269;-81
2022/11/06 03:51:21;;;;;;;4.17;1.30;;;;;;;11.62;58.35;101224.47;5065139;27;96857;-81
2022/11/06 03:53:58;;;;;;;1.40;1.30;;;;;;;11.61;58.14;101229.22;5022162;27;100167;-83
2022/11/06 03:56:35;;;;;;;1.53;1.43;;;;;;;11.58;58.25;101227.44;5047998;27;97012;-81
2022/11/06 03:59:04;;;;;;;2.17;1.43;;;;;;;11.57;58.34;101231.44;5047376;27;97114;-81
2022/11/06 04:01:34;;;;;;;1.50;1.40;;;;;;;11.61;58.38;101239.50;5065759;27;98819;-81
2022/11/06 04:04:13;;;;;;;2.50;1.60;;;;;;;11.62;58.35;101233.47;5041349;27;99817;-81
2022/11/06 04:06:55;;;;;;;2.60;1.67;;;;;;;11.67;58.43;101238.34;5064410;27;97177;-80
2022/11/06 04:14:58;;;;;;;2.13;1.50;;;;;;;11.69;58.17;101235.09;5053223;27;101273;-82
2022/11/06 04:17:27;;;;;;;3.07;1.60;;;;;;;11.68;58.23;101242.63;5042732;27;96868;-82
2022/11/06 04:19:57;;;;;;;2.13;1.90;;;;;;;11.72;58.36;101232.13;5039075;27;97240;-82
2022/11/06 04:22:25;;;;;;;1.80;1.70;;;;;;;11.74;58.23;101231.63;5058097;27;99805;-81
2022/11/06 04:28:02;;;;;;;1.43;1.33;;;;;;;11.74;58.20;101232.41;5047531;27;96638;-80
2022/11/06 04:30:34;;;;;;;1.60;1.50;;;;;;;11.73;58.19;101241.91;5036593;27;97543;-81
2022/11/06 04:33:17;;;;;;;1.70;1.60;;;;;;;11.75;58.30;101233.91;5060058;27;97033;-83
2022/11/06 04:35:49;;;;;;;2.27;2.00;;;;;;;11.73;58.21;101233.63;5034356;27;96946;-82
2022/11/06 04:38:43;;;;;;;1.93;1.70;;;;;;;11.71;58.35;101238.09;5041957;27;96878;-81
2022/11/06 04:41:11;;;;;;;1.83;1.53;;;;;;;11.70;58.26;101242.88;4974865;27;97360;-83
2022/11/06 04:43:42;;;;;;;3.00;1.70;;;;;;;11.73;58.34;101246.69;5047275;27;97363;-81
2022/11/06 04:46:12;;;;;;;2.30;1.90;;;;;;;11.75;58.30;101257.97;5065677;27;96901;-81
2022/11/06 04:48:40;;;;;;;2.00;1.83;;;;;;;11.77;58.38;101241.69;5043209;27;96840;-81
2022/11/06 04:51:09;;;;;;;2.27;1.77;;;;;;;11.78;58.11;101240.44;5040224;27;97053;-82
2022/11/06 04:53:35;;;;;;;1.93;1.50;;;;;;;11.78;58.29;101237.69;5052335;27;100216;-82
2022/11/06 04:56:08;;;;;;;1.83;1.73;;;;;;;11.81;58.12;101233.97;5044748;27;100220;-81
2022/11/06 04:58:34;;;;;;;1.50;1.40;;;;;;;11.80;58.18;101252.50;5044376;27;98016;-82
2022/11/06 05:01:00;;;;;;;2.00;1.90;;;;;;;11.82;58.26;101244.50;5043882;27;97278;-82
2022/11/06 05:03:25;;;;;;;2.03;1.73;;;;;;;11.79;58.28;101237.22;5061810;27;97221;-82
2022/11/06 05:05:50;;;;;;;1.90;1.70;;;;;;;11.82;58.29;101254.75;5038762;27;97690;-81
2022/11/06 05:08:19;;;;;;;2.17;1.83;;;;;;;11.83;58.14;101261.81;5044141;27;97668;-81
2022/11/06 05:10:44;;;;;;;2.03;1.80;;;;;;;11.86;58.20;101241.56;5044560;27;96972;-82
2022/11/06 05:13:11;;;;;;;2.83;2.20;;;;;;;11.85;58.11;101243.53;5035387;27;97317;-80
2022/11/06 05:15:37;;;;;;;2.20;1.67;;;;;;;11.85;58.13;101243.53;5040023;27;99531;-81
2022/11/06 05:18:03;;;;;;;2.17;1.53;;;;;;;11.86;58.20;101239.53;5046290;27;97502;-81
2022/11/06 05:20:29;;;;;;;2.50;1.60;;;;;;;11.84;58.21;101239.25;5043177;27;96830;-81
2022/11/06 05:22:57;;;;;;;1.40;1.30;;;;;;;11.81;58.06;101234.72;5037462;27;103024;-81
2022/11/06 05:25:29;;;;;;;2.90;1.67;;;;;;;11.77;58.16;101225.91;5042998;27;100032;-81
2022/11/06 05:27:55;;;;;;;2.97;2.10;;;;;;;11.78;58.01;101224.66;5061651;27;96923;-81
2022/11/06 05:30:21;;;;;;;1.57;1.40;;;;;;;11.75;58.12;101238.69;5045897;27;96922;-81
2022/11/06 05:32:47;;;;;;;5.57;1.77;;;;;;;11.72;58.05;101229.38;5044643;27;99822;-81
2022/11/06 05:35:13;;;;;;;2.97;1.77;;;;;;;11.68;58.15;101217.81;5042572;27;98696;-82
2022/11/06 05:37:39;;;;;;;3.63;1.80;;;;;;;11.66;58.17;101241.56;5044009;27;96933;-80
2022/11/06 05:40:05;;;;;;;4.03;2.10;;;;;;;11.65;58.23;101234.50;5056545;27;98234;-81
2022/11/06 05:42:30;;;;;;;1.50;1.40;;;;;;;11.64;58.12;101219.97;5035424;27;98454;-81
2022/11/06 05:44:56;;;;;;;3.77;1.37;;;;;;;11.61;58.20;101223.72;5042951;27;97669;-81
2022/11/06 05:47:21;;;;;;;3.37;1.70;;;;;;;11.60;58.29;101202.91;5046035;27;96966;-81
2022/11/06 05:49:46;;;;;;;1.40;1.30;;;;;;;11.60;58.15;101210.44;5049672;27;97120;-80
2022/11/06 05:52:12;;;;;;;5.70;1.73;;;;;;;11.56;58.45;101205.13;5043760;27;97923;-81
2022/11/06 05:54:37;;;;;;;2.10;1.90;;;;;;;11.55;58.41;101203.63;5044558;27;98007;-81
2022/11/06 05:57:03;;;;;;;1.33;1.23;;;;;;;11.54;58.35;101195.81;5045735;27;97312;-82
2022/11/06 05:59:28;;;;;;;2.50;1.53;;;;;;;11.49;58.38;101204.81;5031750;27;96786;-80
2022/11/06 06:01:54;;;;;;;4.90;1.53;;;;;;;11.46;58.45;101184.47;5030573;27;98737;-81
2022/11/06 06:04:19;;;;;;;1.43;1.27;;;;;;;11.42;58.39;101199.72;5057846;27;97096;-81
2022/11/06 06:06:45;;;;;;;4.53;2.10;;;;;;;11.40;58.41;101204.94;5044005;27;97389;-80
2022/11/06 06:09:10;;;;;;;3.13;1.80;;;;;;;11.36;58.47;101210.66;5046170;27;96952;-81
2022/11/06 06:11:36;;;;;;;2.03;1.50;;;;;;;11.39;58.45;101211.69;5037329;27;100229;-81
2022/11/06 06:14:01;;;;;;;1.57;1.40;;;;;;;11.37;58.42;101209.41;5060939;27;99628;-81
2022/11/06 06:16:27;;;;;;;1.60;1.50;;;;;;;11.37;58.34;101208.66;5022256;27;97665;-81
2022/11/06 06:18:53;;;;;;;1.80;1.70;;;;;;;11.36;58.47;101221.66;5031370;27;96921;-81
2022/11/06 06:21:18;;;;;;;2.00;1.43;;;;;;;11.33;58.42;101214.38;5032685;27;98850;-81
2022/11/06 06:23:44;;;;;;;1.93;1.50;;;;;;;11.36;58.57;101207.91;5034323;27;99306;-82
2022/11/06 06:26:09;;;;;;;2.63;1.27;;;;;;;11.37;58.40;101208.66;5039844;27;97304;-82
2022/11/06 06:28:35;;;;;;;4.40;2.50;;;;;;;11.36;58.49;101210.66;5035136;27;96945;-81
2022/11/06 06:31:06;;;;;;;2.40;1.80;;;;;;;11.35;58.46;101200.88;5046460;27;98800;-82
2022/11/06 06:33:32;;;;;;;2.27;1.87;;;;;;;11.31;58.59;101214.13;5044995;27;100474;-80
2022/11/06 06:36:02;;;;;;;1.40;1.30;;;;;;;11.32;58.42;101193.56;5039033;27;97198;-80
2022/11/06 06:38:28;;;;;;;1.63;1.43;;;;;;;11.26;58.56;101206.53;5044917;27;97086;-81
2022/11/06 06:40:53;;;;;;;1.37;1.27;;;;;;;11.25;58.69;101214.03;5044552;27;98108;-81
2022/11/06 06:43:19;;;;;;;1.80;1.00;;;;;;;11.23;58.54;101188.97;5059098;27;97819;-81
2022/11/06 06:45:44;;;;;;;2.73;1.63;;;;;;;11.26;58.58;101215.56;5042466;27;97056;-81
2022/11/06 06:48:10;;;;;;;1.63;1.53;;;;;;;11.20;58.60;101189.19;5059889;27;96971;-81
2022/11/06 06:50:35;;;;;;;1.60;1.50;;;;;;;11.18;58.67;101189.66;5035869;27;98827;-81
2022/11/06 06:53:00;;;;;;;2.53;1.30;;;;;;;11.18;58.71;101184.16;5065061;27;97337;-80
2022/11/06 06:55:26;;;;;;;4.90;1.70;;;;;;;11.17;58.60;101193.66;5041611;27;97038;-80
2022/11/06 06:57:59;;;;;;;1.90;1.60;;;;;;;11.19;58.52;101177.41;5048579;27;96847;-81
2022/11/06 07:00:25;;;;;;;4.63;1.43;;;;;;;11.16;58.52;101191.41;5036862;27;100605;-80
2022/11/06 07:02:51;;;;;;;1.87;1.17;;;;;;;11.17;58.67;101187.41;5049819;27;97391;-81
2022/11/06 07:05:16;;;;;;;4.90;1.57;;;;;;;11.16;58.69;101205.91;5047745;27;97274;-81
2022/11/06 07:07:42;;;;;;;4.30;1.77;;;;;;;11.19;58.93;101187.66;5068167;27;97137;-81
2022/11/06 07:10:07;;;;;;;2.50;1.60;;;;;;;11.19;58.73;101193.19;5046182;27;97526;-81
2022/11/06 07:12:33;;;;;;;2.80;1.70;;;;;;;11.20;58.73;101200.22;5043242;27;99621;-81
2022/11/06 07:14:58;;;;;;;3.30;1.30;;;;;;;11.21;58.70;101207.22;5048692;27;96732;-81
2022/11/06 07:17:24;;;;;;;1.50;1.40;;;;;;;11.24;58.69;101217.28;5067368;27;97351;-80
2022/11/06 07:19:49;;;;;;;1.57;1.47;;;;;;;11.26;58.63;101210.06;5049639;27;98411;-81
2022/11/06 07:22:15;;;;;;;4.40;2.27;;;;;;;11.27;58.82;101214.31;5048742;27;97844;-81
2022/11/06 07:24:40;;;;;;;4.10;2.20;;;;;;;11.27;58.82;101206.03;5048016;27;97294;-81
2022/11/06 07:27:06;;;;;;;2.53;1.93;;;;;;;11.29;58.69;101192.53;5045995;27;97175;-80
2022/11/06 07:29:31;;;;;;;2.93;1.60;;;;;;;11.33;58.82;101195.84;5064879;27;97029;-80
2022/11/06 07:31:57;;;;;;;1.80;1.70;;;;;;;11.39;58.71;101197.91;5046197;27;97379;-81
2022/11/06 07:34:22;;;;;;;2.00;1.90;;;;;;;11.46;58.83;101214.03;5064901;27;96656;-81
2022/11/06 07:36:47;;;;;;;2.23;1.60;;;;;;;11.55;58.83;101222.91;5049437;27;96696;-81
2022/11/06 07:39:13;;;;;;;2.87;1.90;;;;;;;11.65;58.80;101220.72;5048899;27;97295;-80
2022/11/06 07:41:38;;;;;;;1.93;1.53;;;;;;;11.73;58.84;101216.34;5047195;27;98754;-80
2022/11/06 07:44:04;;;;;;;2.83;1.73;;;;;;;11.78;58.64;101207.38;5045179;27;96946;-83
2022/11/06 07:46:30;;;;;;;1.70;1.60;;;;;;;11.83;58.55;101204.66;5040957;27;97103;-82
2022/11/06 07:48:55;;;;;;;1.90;1.50;;;;;;;11.90;58.53;101204.22;5054658;27;98433;-81
2022/11/06 07:51:21;;;;;;;2.93;1.80;;;;;;;11.96;58.44;101205.03;5042114;27;97895;-82
2022/11/06 07:53:46;;;;;;;2.47;1.57;;;;;;;11.99;58.44;101203.31;5047889;27;96849;-81
2022/11/06 07:56:11;;;;;;;2.50;1.43;;;;;;;12.01;58.44;101198.06;5043021;27;97067;-81
2022/11/06 07:58:37;;;;;;;3.43;1.60;;;;;;;12.07;58.47;101203.63;5048359;27;99213;-81
2022/11/06 08:01:03;;;;;;;1.50;1.40;;;;;;;12.09;58.32;101209.41;5045303;27;96625;-82
2022/11/06 08:03:29;;;;;;;1.57;1.47;;;;;;;12.14;58.22;101217.72;5046307;27;97429;-81
2022/11/06 08:05:55;;;;;;;2.50;1.60;;;;;;;12.17;58.40;101196.66;5064044;27;96871;-82
2022/11/06 08:08:20;;;;;;;2.50;1.57;;;;;;;12.20;58.19;101201.22;5046939;27;99564;-81
2022/11/06 08:10:46;;;;;;;1.47;1.37;;;;;;;12.20;58.32;101204.72;5059036;27;96708;-81
2022/11/06 08:13:14;;;;;;;1.80;1.70;;;;;;;12.23;58.33;101195.47;5044793;27;97193;-81
2022/11/06 08:15:41;;;;;;;2.90;1.80;;;;;;;12.23;58.27;101189.22;5046896;27;97306;-81
2022/11/06 08:18:07;;;;;;;2.30;2.10;;;;;;;12.29;58.17;101184.47;5044940;27;99659;-80
2022/11/06 08:20:34;;;;;;;2.50;1.50;;;;;;;12.32;58.34;101191.78;5065370;27;97794;-82
2022/11/06 08:23:01;;;;;;;5.03;1.67;;;;;;;12.32;58.39;101175.97;5041403;27;96884;-83
2022/11/06 08:25:28;;;;;;;1.43;1.27;;;;;;;12.37;58.35;101177.25;5043551;27;97135;-80
2022/11/06 08:27:54;;;;;;;1.63;1.30;;;;;;;12.42;58.28;101174.56;5044127;27;97589;-81
2022/11/06 08:30:20;;;;;;;2.00;1.83;;;;;;;12.47;58.30;101171.03;5048233;27;100276;-81
2022/11/06 08:32:45;;;;;;;1.77;1.63;;;;;;;12.51;58.20;101173.59;5044083;27;96958;-81
2022/11/06 08:35:11;;;;;;;7.07;2.17;;;;;;;12.56;58.26;101159.06;5033011;27;97166;-80
2022/11/06 08:37:36;;;;;;;2.03;1.50;;;;;;;12.62;58.09;101168.88;5061086;27;98899;-79
2022/11/06 08:40:03;;;;;;;1.60;1.30;;;;;;;12.67;58.25;101157.13;5046835;27;99281;-82
2022/11/06 08:42:29;;;;;;;3.40;1.50;;;;;;;12.70;58.03;101163.66;5026631;27;97041;-81
2022/11/06 08:44:54;;;;;;;2.33;1.87;;;;;;;12.75;58.07;101151.91;5040835;27;97175;-80
2022/11/06 08:47:19;;;;;;;2.13;2.00;;;;;;;12.83;58.10;101150.16;5029397;27;98753;-82
2022/11/06 08:49:45;;;;;;;1.10;1.10;;;;;;;12.88;58.00;101162.50;4982710;27;1410592;-81
2022/11/06 08:52:10;;;;;;;2.50;1.73;;;;;;;12.93;58.02;101159.75;5035256;27;97210;-82
2022/11/06 08:54:36;;;;;;;1.83;1.73;;;;;;;13.01;58.07;101162.78;5034875;27;97280;-81
2022/11/06 08:57:01;;;;;;;1.97;1.30;;;;;;;13.08;57.89;101168.66;5048927;27;102311;-82
2022/11/06 08:59:27;;;;;;;4.90;1.60;;;;;;;13.10;57.93;101160.59;5046895;27;96976;-81
2022/11/06 09:01:52;;;;;;;1.40;1.30;;;;;;;13.16;57.80;101147.56;5032169;27;96998;-82
2022/11/06 09:04:18;;;;;;;2.07;1.80;;;;;;;13.18;57.79;101142.28;5042765;27;96888;-79
2022/11/06 09:06:43;;;;;;;1.97;1.87;;;;;;;13.15;57.71;101148.06;5038300;27;98693;-80
2022/11/06 09:09:08;;;;;;;2.50;1.40;;;;;;;13.15;57.75;101168.13;5038802;27;97347;-81
2022/11/06 09:11:34;;;;;;;2.50;1.37;;;;;;;13.09;57.66;101148.03;5028623;27;97133;-80
2022/11/06 09:13:59;;;;;;;2.10;1.80;;;;;;;13.13;57.87;101156.06;5048145;27;96878;-81
2022/11/06 09:16:25;;;;;;;2.67;1.90;;;;;;;13.18;57.85;101142.28;5030233;27;100179;-81
2022/11/06 09:18:54;;;;;;;3.07;2.13;;;;;;;13.21;57.84;101141.31;5042633;27;97941;-80
2022/11/06 09:21:20;;;;;;;3.10;1.90;;;;;;;13.24;57.85;101159.63;5034966;27;96821;-79
2022/11/06 09:23:47;;;;;;;2.00;1.90;;;;;;;13.30;57.80;101145.84;5048353;27;96884;-82
2022/11/06 09:26:13;;;;;;;3.43;1.67;;;;;;;13.34;57.78;101141.59;5057917;27;98954;-82
2022/11/06 09:28:39;;;;;;;3.73;2.47;;;;;;;13.34;57.74;101152.66;5072365;27;98156;-82
2022/11/06 09:31:05;;;;;;;1.60;1.50;;;;;;;13.40;57.60;101147.88;5060922;27;96932;-82
2022/11/06 09:33:31;;;;;;;1.50;1.40;;;;;;;13.45;57.54;101146.38;5061967;27;97433;-82
2022/11/06 09:35:56;;;;;;;4.07;1.57;;;;;;;13.48;57.74;101156.41;5034545;27;99149;-82
2022/11/06 09:38:22;;;;;;;3.37;1.50;;;;;;;13.50;57.60;101151.16;5039259;27;98599;-81
2022/11/06 09:40:54;;;;;;;3.83;1.80;;;;;;;13.60;57.62;101137.84;5033701;27;96920;-81
2022/11/06 09:43:57;;;;;;;2.03;1.33;;;;;;;13.66;57.07;101130.31;5023239;27;96973;-83
2022/11/06 09:46:32;;;;;;;2.00;1.90;;;;;;;13.70;57.43;101128.81;5029709;27;104673;-83
2022/11/06 09:49:07;;;;;;;3.57;1.57;;;;;;;13.73;57.19;101116.00;5055075;27;97643;-81
2022/11/06 09:51:37;;;;;;;3.93;1.73;;;;;;;13.77;57.21;101122.03;5070269;27;96878;-83
2022/11/06 09:54:35;;;;;;;2.07;1.97;;;;;;;13.79;57.00;101119.50;5051739;27;97121;-80
2022/11/06 09:57:10;;;;;;;1.70;1.60;;;;;;;13.83;57.14;101122.75;5061997;27;102508;-84
2022/11/06 09:59:40;;;;;;;2.17;1.43;;;;;;;13.86;57.20;101117.00;5038596;27;97277;-81
2022/11/06 10:02:22;;;;;;;3.73;1.70;;;;;;;13.93;56.90;101126.81;5060082;27;96876;-83
2022/11/06 10:04:57;;;;;;;1.70;1.60;;;;;;;13.97;57.16;101127.28;5038704;27;96783;-86
2022/11/06 10:07:33;;;;;;;1.93;1.60;;;;;;;14.00;56.81;101123.53;5058019;27;97096;-83
2022/11/06 10:10:00;;;;;;;2.30;1.53;;;;;;;14.01;57.02;101122.25;5035996;27;98851;-83
2022/11/06 10:12:44;;;;;;;1.30;1.20;;;;;;;14.04;56.65;101122.00;5027293;27;96846;-81
2022/11/06 10:15:22;;;;;;;1.93;1.43;;;;;;;14.09;56.69;101126.00;5048973;27;97023;-81
2022/11/06 10:18:15;;;;;;;1.93;1.57;;;;;;;14.12;56.53;101114.72;5028273;27;100714;-82
2022/11/06 10:20:46;;;;;;;2.87;1.80;;;;;;;14.15;56.91;101110.91;5046449;27;102541;-81
2022/11/06 10:23:22;;;;;;;4.33;1.50;;;;;;;14.19;56.46;101110.66;5042896;27;96780;-80
2022/11/06 10:26:13;;;;;;;1.97;1.70;;;;;;;14.22;56.19;101107.63;5061638;27;97317;-81
2022/11/06 10:29:01;;;;;;;1.77;1.67;;;;;;;14.23;56.61;101123.00;5039719;27;104266;-82
2022/11/06 10:31:47;;;;;;;2.23;1.60;;;;;;;14.31;56.77;101119.75;5042357;27;104593;-81
2022/11/06 10:34:21;;;;;;;2.23;1.47;;;;;;;14.31;56.44;101109.41;5045314;27;97161;-82
2022/11/06 10:37:00;;;;;;;2.73;1.57;;;;;;;14.38;55.72;101119.19;5064186;27;96759;-78
2022/11/06 10:39:34;;;;;;;2.53;1.83;;;;;;;14.38;56.46;101117.19;5048786;27;96925;-80
2022/11/06 10:42:17;;;;;;;1.47;1.37;;;;;;;14.41;56.19;101112.66;5039172;27;98287;-81
2022/11/06 10:45:03;;;;;;;2.17;1.60;;;;;;;14.51;56.12;101122.94;5045526;27;97185;-81
2022/11/06 10:47:32;;;;;;;2.17;1.50;;;;;;;14.57;56.46;101106.34;5068477;27;96997;-83
2022/11/06 10:50:01;;;;;;;1.20;1.20;;;;;;;14.61;56.47;101101.28;5036301;27;98983;-81
2022/11/06 10:52:47;;;;;;;1.83;1.40;;;;;;;14.70;56.13;101098.97;5036191;27;98565;-82
2022/11/06 10:55:57;;;;;;;2.50;1.40;;;;;;;14.77;55.93;101075.50;5042554;27;97023;-80
2022/11/06 10:58:31;;;;;;;1.90;1.43;;;;;;;14.84;56.09;101078.50;5025048;27;96927;-81
2022/11/06 11:01:02;;;;;;;2.20;1.40;;;;;;;14.92;56.08;101067.63;5060579;27;101560;-81
2022/11/06 11:03:34;;;;;;;2.00;1.47;;;;;;;15.02;55.94;101066.84;5050767;27;99477;-81
2022/11/06 11:06:01;;;;;;;1.50;1.40;;;;;;;15.11;56.13;101051.16;5045691;27;97145;-81
2022/11/06 11:08:30;;;;;;;1.80;1.50;;;;;;;15.23;55.91;101047.78;5065003;27;98835;-81
2022/11/06 11:11:04;;;;;;;2.27;1.93;;;;;;;15.32;55.43;101039.16;5059884;27;97629;-82
2022/11/06 11:13:30;;;;;;;1.77;1.30;;;;;;;15.42;55.73;101034.78;5064753;27;102003;-84
2022/11/06 11:15:56;;;;;;;3.13;1.67;;;;;;;15.56;55.57;101030.94;5037167;27;97217;-82
2022/11/06 11:18:30;;;;;;;1.20;1.10;;;;;;;15.75;55.30;101031.00;5063016;27;97315;-82
2022/11/06 11:21:15;;;;;;;1.43;1.13;;;;;;;16.00;54.20;101031.75;5045316;27;96855;-83
2022/11/06 11:23:41;;;;;;;1.43;1.33;;;;;;;16.21;54.73;101030.75;5060759;27;102259;-81
2022/11/06 11:26:21;;;;;;;1.63;1.17;;;;;;;16.44;52.59;101026.47;5039239;27;97183;-80
2022/11/06 11:28:55;;;;;;;1.27;1.17;;;;;;;16.70;52.82;101027.94;5046198;27;96782;-81
2022/11/06 11:31:30;;;;;;;3.07;1.20;;;;;;;16.94;52.84;101031.38;5039621;27;100936;-83
2022/11/06 11:33:58;;;;;;;1.50;0.97;;;;;;;17.21;53.46;101024.63;5032368;27;101552;-82
2022/11/06 11:36:24;;;;;;;1.30;0.93;;;;;;;17.42;53.11;101030.38;5034285;27;97715;-83
2022/11/06 11:38:50;;;;;;;1.47;1.30;;;;;;;17.63;52.87;101013.84;5044163;27;97721;-81
2022/11/06 11:41:18;;;;;;;1.43;1.33;;;;;;;17.85;52.23;101013.47;5047194;27;97563;-80
2022/11/06 11:43:54;;;;;;;1.53;1.43;;;;;;;18.03;51.12;101020.97;5043723;27;96841;-84
2022/11/06 11:46:20;;;;;;;1.30;1.13;;;;;;;18.11;52.09;100998.81;5037274;27;97487;-83
2022/11/06 11:48:48;;;;;;;4.77;1.60;;;;;;;18.22;51.62;100998.56;5039786;27;96920;-85